Flight Track Log - Related Links

Times and Time Zones

All times are in EST time to prevent confusion due to time zone crossing. See the VP-BLX flight status page for this flight to view local times or setup timezone preferences in your user account.

Time Position Orientation Groundspeed Altitude Reporting Facility
EST Latitude Longitude Course Direction KTS MPH feet Rate Location/Type
Thu 05:52:16 PM 25.7983 -80.2631 125° Southeast 153 176 1,200  Level Miami Center
Thu 05:52:47 PM 25.7864 -80.2442 125° Southeast 171 197 2,400 1,592 Climbing Miami Center
Thu 05:53:54 PM 25.7858 -80.1725 90° East 238 274 3,800 1,770 Climbing Miami Center
Thu 05:54:49 PM 25.7936 -80.1014 83° East 257 296 6,000 2,000 Climbing Miami Center
Thu 05:54:51 PM 25.7978 -80.1061 314° West 250 288 5,700 2,557 Descending Miami Center
Thu 05:55:50 PM 25.8267 -80.0214 69° East 278 320 8,600 2,600 Climbing Miami Center
Thu 05:55:51 PM 25.8331 -80.0169 32° Northeast 276 318 8,300 2,066 Descending Miami Center
Thu 05:56:51 PM 25.8700 -79.9486 59° Northeast 289 333 10,700 1,900 Climbing Miami Center
Thu 05:57:51 PM 25.9136 -79.8667 59° Northeast 357 411 12,100 1,950 Climbing Miami Center
Thu 05:58:51 PM 25.9758 -79.7850 50° Northeast 346 398 14,600 2,200 Climbing Miami Center
Thu 05:59:51 PM 26.0422 -79.7011 49° Northeast 346 398 16,500 1,950 Climbing Miami Center
Thu 06:00:51 PM 26.1108 -79.6172 48° Northeast 352 405 18,500 1,850 Climbing Miami Center
Thu 06:01:51 PM 26.1894 -79.5472 39° Northeast 357 411 20,200 1,750 Climbing Miami Center
Thu 06:02:51 PM 26.2928 -79.4822 29° Northeast 377 434 22,000 1,450 Climbing Miami Center
Thu 06:03:51 PM 26.3922 -79.4219 28° Northeast 391 450 23,100 900 Climbing Miami Center
Thu 06:04:51 PM 26.5019 -79.3544 29° Northeast 430 495 23,800 950 Climbing Miami Center
Thu 06:05:51 PM 26.6136 -79.2872 28° Northeast 447 514 25,000 1,150 Climbing Miami Center
Thu 06:06:51 PM 26.7192 -79.2219 29° Northeast 464 534 26,100 1,050 Climbing Miami Center
Thu 06:07:51 PM 26.8353 -79.1497 29° Northeast 469 540 27,100 1,050 Climbing Miami Center
Thu 06:08:51 PM 26.9597 -79.0775 27° Northeast 474 545 28,200 876 Climbing Miami Center
Thu 06:14:35 PM 27.7257 -78.7496 27° Northeast 465 535 33,000 770 Climbing FlightAware ADS-B
Thu 06:15:05 PM 27.7851 -78.7410 North 464 534 33,000  Level FlightAware ADS-B
Thu 06:15:51 PM 27.8394 -78.7353 North 464 534 33,000  Level Miami Center
Thu 06:16:51 PM 27.9711 -78.7186 North 464 534 33,000  Level Miami Center
Thu 06:17:51 PM 28.0989 -78.6994 North 464 534 33,000  Level Miami Center
Thu 06:18:51 PM 28.2286 -78.6806 North 464 534 33,000  Level Miami Center
Thu 06:19:51 PM 28.3625 -78.6592 North 469 540 33,000  Level Miami Center
Thu 06:20:51 PM 28.4900 -78.6397 North 469 540 33,000  Level Miami Center
Thu 06:21:51 PM 28.6239 -78.6206 North 469 540 33,000  Level Miami Center
Thu 06:22:51 PM 28.7556 -78.6014 North 469 540 33,000  Level Miami Center
Thu 06:23:51 PM 28.8808 -78.5797 North 469 540 33,000  Level Miami Center
Thu 06:24:51 PM 29.0106 -78.5603 North 469 540 33,000  Level Miami Center
Thu 06:25:51 PM 29.1483 -78.5433 North 470 541 33,000  Level Miami Center
Thu 06:26:51 PM 29.2800 -78.5264 North 465 535 33,000  Level Miami Center
Thu 06:27:51 PM 29.4033 -78.5022 10° North 465 535 33,000  Level Miami Center
Thu 06:28:51 PM 29.5350 -78.4875 North 465 535 33,000  Level Miami Center
Thu 06:29:51 PM 29.6583 -78.4653 North 459 528 33,000  Level Miami Center
Thu 06:30:51 PM 29.7900 -78.4481 North 464 534 33,000  Level Miami Center
Thu 06:31:53 PM 29.9086 -78.4242 10° North 469 540 33,000  Level Jacksonville Center
Thu 06:32:53 PM 30.0375 -78.4086 North 468 539 33,000  Level Jacksonville Center
Thu 06:33:53 PM 30.1617 -78.3836 10° North 463 533 33,000  Level Jacksonville Center
Thu 06:34:53 PM 30.3053 -78.3672 North 463 533 33,000  Level Jacksonville Center
Thu 06:35:53 PM 30.4358 -78.3467 North 463 533 33,000  Level Jacksonville Center
Thu 06:36:53 PM 30.5644 -78.3189 11° North 471 542 33,000  Level Jacksonville Center
Thu 06:37:53 PM 30.6906 -78.2911 11° North 468 539 33,000  Level Jacksonville Center
Thu 06:38:53 PM 30.8147 -78.2608 12° North 462 532 33,000  Level Jacksonville Center
Thu 06:39:53 PM 30.9494 -78.2347 North 467 537 33,000  Level Jacksonville Center
Thu 06:40:53 PM 31.0633 -78.2050 13° North 461 531 33,000  Level Jacksonville Center
Thu 06:41:53 PM 31.1897 -78.1792 10° North 461 531 33,000  Level Jacksonville Center
Thu 06:42:53 PM 31.3178 -78.1483 12° North 466 536 33,000  Level Jacksonville Center
Thu 06:43:53 PM 31.4461 -78.1200 11° North 466 536 33,000  Level Jacksonville Center
Thu 06:44:53 PM 31.5728 -78.0964 North 466 536 33,000  Level Jacksonville Center
Thu 06:45:53 PM 31.6989 -78.0681 11° North 466 536 33,000  Level Jacksonville Center
Thu 06:46:53 PM 31.8272 -78.0392 11° North 466 536 33,000  Level Jacksonville Center
Thu 06:47:53 PM 31.9517 -78.0181 North 466 536 33,000  Level Jacksonville Center
Thu 06:48:53 PM 32.0797 -77.9842 13° North 466 536 33,000  Level Jacksonville Center
Thu 06:49:53 PM 32.2042 -77.9628 North 461 531 33,000  Level Jacksonville Center
Thu 06:50:53 PM 32.3303 -77.9314 12° North 461 531 33,000  Level Jacksonville Center
Thu 06:51:53 PM 32.4564 -77.9050 10° North 461 531 33,000  Level Jacksonville Center
Thu 06:52:53 PM 32.5808 -77.8808 North 461 531 33,000  Level Jacksonville Center
Thu 06:53:53 PM 32.7050 -77.8542 10° North 461 531 33,000  Level Jacksonville Center
Thu 06:54:53 PM 32.8292 -77.8275 10° North 461 531 33,000  Level Jacksonville Center
Thu 06:57:24 PM 33.1383 -77.7614 10° North 450 518 33,000  Level Washington Center
Thu 06:58:25 PM 33.2597 -77.7347 10° North 450 518 33,000  Level Washington Center
Thu 06:59:25 PM 33.4022 -77.7036 10° North 460 529 33,000  Level Washington Center
Thu 07:00:25 PM 33.5258 -77.6792 North 460 529 33,000  Level Washington Center
Thu 07:01:23 PM 33.6494 -77.6497 11° North 455 524 33,000  Level Washington Center
Thu 07:02:23 PM 33.7769 -77.6231 10° North 449 517 33,000  Level Washington Center
Thu 07:03:24 PM 33.8983 -77.5961 10° North 449 517 33,000  Level Washington Center
Thu 07:04:25 PM 34.0242 -77.5714 North 449 517 33,000  Level Washington Center
Thu 07:05:25 PM 34.1517 -77.5444 10° North 454 522 33,000  Level Washington Center
Thu 07:06:25 PM 34.2753 -77.5197 North 454 522 33,000  Level Washington Center
Thu 07:07:23 PM 34.4008 -77.4925 10° North 449 517 33,000  Level Washington Center
Thu 07:08:25 PM 34.5244 -77.4650 10° North 449 517 33,000  Level Washington Center
Thu 07:09:25 PM 34.6442 -77.4147 19° North 449 517 33,000  Level Washington Center
Thu 07:10:23 PM 34.7639 -77.3542 23° Northeast 454 522 33,000  Level Washington Center
Thu 07:11:24 PM 34.8797 -77.2883 25° Northeast 454 522 33,000  Level Washington Center
Thu 07:12:24 PM 34.9972 -77.2250 24° Northeast 454 522 33,000  Level Washington Center
Thu 07:13:25 PM 35.1150 -77.1639 23° Northeast 459 528 33,000  Level Washington Center
Thu 07:14:25 PM 35.2264 -77.1050 23° Northeast 464 534 33,000  Level Washington Center
Thu 07:15:26 PM 35.3419 -77.0461 23° Northeast 464 534 33,000  Level Washington Center
Thu 07:16:23 PM 35.4617 -76.9792 24° Northeast 459 528 33,000  Level Washington Center
Thu 07:17:23 PM 35.5769 -76.9175 24° Northeast 459 528 33,000  Level Washington Center
Thu 07:18:24 PM 35.6967 -76.8556 23° Northeast 459 528 33,000  Level Washington Center
Thu 07:19:24 PM 35.8119 -76.7908 24° Northeast 459 528 33,000  Level Washington Center
Thu 07:20:35 PM 35.9317 -76.7258 24° Northeast 459 528 33,000  Level Washington Center
Thu 07:21:35 PM 36.0700 -76.6533 23° Northeast 459 528 33,000  Level Washington Center
Thu 07:22:36 PM 36.1853 -76.5906 24° Northeast 459 528 33,000  Level Washington Center
Thu 07:23:37 PM 36.3006 -76.5250 25° Northeast 454 522 33,000  Level Washington Center
Thu 07:24:35 PM 36.4136 -76.4644 23° Northeast 447 514 33,000  Level Washington Center
Thu 07:25:36 PM 36.5289 -76.4036 23° Northeast 442 509 33,000  Level Washington Center
Thu 07:26:37 PM 36.6461 -76.3400 24° Northeast 442 509 33,000  Level Washington Center
Thu 07:27:37 PM 36.7717 -76.2661 25° Northeast 442 509 33,000  Level Washington Center
Thu 07:28:35 PM 36.8867 -76.2022 24° Northeast 442 509 33,000  Level Washington Center
Thu 07:29:35 PM 36.9956 -76.1511 21° North 442 509 33,000  Level Washington Center
Thu 07:35:46 PM 37.6876 -75.6489 21° North 458 527 33,000  Level FlightAware ADS-B
Thu 07:36:16 PM 37.7456 -75.6028 32° Northeast 458 527 33,000  Level FlightAware ADS-B
Thu 07:36:53 PM 37.8131 -75.5493 32° Northeast 459 528 33,000  Level FlightAware ADS-B
Thu 07:37:42 PM 37.9001 -75.4800 32° Northeast 460 529 33,000  Level FlightAware ADS-B
Thu 07:38:14 PM 37.9581 -75.4337 32° Northeast 460 529 33,000  Level FlightAware ADS-B
Thu 07:38:59 PM 38.0385 -75.3694 32° Northeast 462 532 33,000  Level FlightAware ADS-B
Thu 07:39:31 PM 38.0964 -75.3230 32° Northeast 463 533 33,000  Level FlightAware ADS-B
Thu 07:40:01 PM 38.1369 -75.2904 32° Northeast 464 534 33,000  Level FlightAware ADS-B
Thu 07:40:48 PM 38.2332 -75.2129 32° Northeast 465 535 33,000  Level FlightAware ADS-B
Thu 07:41:18 PM 38.2766 -75.1779 32° Northeast 465 535 33,000  Level FlightAware ADS-B
Thu 07:42:01 PM 38.3666 -75.1050 32° Northeast 464 534 33,000  Level FlightAware ADS-B
Thu 07:42:42 PM 38.4432 -75.0430 32° Northeast 465 535 33,000  Level FlightAware ADS-B
Thu 07:43:27 PM 38.4975 -74.9988 32° Northeast 468 539 33,000  Level FlightAware ADS-B
Thu 07:44:05 PM 38.5937 -74.9205 32° Northeast 467 537 33,000  Level FlightAware ADS-B
Thu 07:47:58 PM 38.7767 -74.7706 33° Northeast 463 533 33,000  Level FlightAware ADS-B
Thu 07:50:56 PM 39.3307 -74.3115 33° Northeast 455 524 33,000  Level FlightAware ADS-B
Thu 07:52:54 PM 39.4605 -74.2026 33° Northeast 452 520 33,000  Level FlightAware ADS-B
Thu 07:53:38 PM 39.6064 -74.0789 33° Northeast 451 519 33,000  Level Boston Center
Thu 07:54:39 PM 39.7114 -73.9903 33° Northeast 453 521 33,000  Level Boston Center
Thu 07:55:40 PM 39.8153 -73.9025 33° Northeast 450 518 33,000  Level Boston Center
Thu 08:01:19 PM 40.4242 -73.3787 33° Northeast 457 526 33,000  Level FlightAware ADS-B (KSNC)
Thu 08:01:58 PM 40.4923 -73.3194 34° Northeast 456 525 33,000  Level FlightAware ADS-B (KSNC)
Thu 08:02:32 PM 40.5523 -73.2670 34° Northeast 457 526 33,000  Level FlightAware ADS-B (KSNC)
Thu 08:03:11 PM 40.6164 -73.2108 34° Northeast 457 526 33,000  Level FlightAware ADS-B (KSNC)
Thu 08:03:42 PM 40.6739 -73.1605 34° Northeast 458 527 33,000  Level FlightAware ADS-B (KSNC)
Thu 08:04:14 PM 40.7306 -73.1107 34° Northeast 459 528 33,000  Level FlightAware ADS-B (KSNC)
Thu 08:04:44 PM 40.7840 -73.0636 34° Northeast 460 529 33,000  Level FlightAware ADS-B (KSNC)
Thu 08:05:15 PM 40.8403 -73.0140 34° Northeast 461 531 33,000  Level FlightAware ADS-B (KSNC)
Thu 08:05:47 PM 40.8946 -72.9659 34° Northeast 461 531 33,000  Level FlightAware ADS-B (KSNC)
Thu 08:06:29 PM 40.9699 -72.8993 34° Northeast 462 532 33,000  Level FlightAware ADS-B (KSNC)
Thu 08:07:19 PM 41.0608 -72.8277 31° Northeast 455 524 33,000  Level FlightAware ADS-B (KSNC)
Thu 08:07:50 PM 41.1183 -72.7874 28° Northeast 455 524 33,000  Level FlightAware ADS-B (KSNC)
Thu 08:08:25 PM 41.1842 -72.7419 27° Northeast 453 521 33,000  Level FlightAware ADS-B (SBBR / BSB)
Thu 08:08:56 PM 41.2414 -72.7030 27° Northeast 453 521 33,000  Level FlightAware ADS-B (KSNC)
Thu 08:09:45 PM 41.3331 -72.6394 27° Northeast 455 524 33,000  Level FlightAware ADS-B (KSNC)
Thu 08:10:17 PM 41.3925 -72.5981 28° Northeast 457 526 33,000  Level FlightAware ADS-B (KSNC)
Thu 08:10:48 PM 41.4469 -72.5600 28° Northeast 459 528 33,000  Level FlightAware ADS-B (KSNC)
Thu 08:11:24 PM 41.5166 -72.5112 28° Northeast 459 528 33,000  Level FlightAware ADS-B (KSNC)
Thu 08:11:54 PM 41.5727 -72.4720 28° Northeast 458 527 33,000  Level FlightAware ADS-B (KSNC)
Thu 08:12:27 PM 41.6357 -72.4276 28° Northeast 457 526 33,000  Level FlightAware ADS-B (KSNC)
Thu 08:12:58 PM 41.6947 -72.3860 28° Northeast 456 525 33,000  Level FlightAware ADS-B (SBBR / BSB)
Thu 08:13:28 PM 41.7424 -72.3522 28° Northeast 456 525 33,000  Level FlightAware ADS-B (KSNC)
Thu 08:14:05 PM 41.8190 -72.2980 28° Northeast 455 524 33,000  Level FlightAware ADS-B (KSNC)
Thu 08:14:36 PM 41.8749 -72.2584 28° Northeast 454 522 33,000  Level FlightAware ADS-B (KSNC)
Thu 08:15:46 PM 42.0062 -72.1648 28° Northeast 454 522 33,000  Level FlightAware ADS-B
Thu 08:16:27 PM 42.0260 -72.1508 28° Northeast 455 524 33,000  Level FlightAware ADS-B (SBBR / BSB)
Thu 08:16:57 PM 42.1366 -72.0716 28° Northeast 456 525 33,000  Level FlightAware ADS-B
Thu 08:17:30 PM 42.1981 -72.0274 28° Northeast 456 525 33,000  Level FlightAware ADS-B
Thu 08:18:05 PM 42.2586 -71.9839 28° Northeast 455 524 33,000  Level FlightAware ADS-B (SBBR / BSB)
Thu 08:18:36 PM 42.3199 -71.9398 28° Northeast 454 522 33,000  Level FlightAware ADS-B (SBBR / BSB)
Thu 08:19:09 PM 42.3835 -71.8940 28° Northeast 456 525 33,000  Level FlightAware ADS-B (KBOS)
Thu 08:19:42 PM 42.4030 -71.8799 28° Northeast 454 522 33,000  Level FlightAware ADS-B (KBOS)
Thu 08:20:33 PM 42.5374 -71.7823 28° Northeast 453 521 33,000  Level FlightAware ADS-B
Thu 08:21:04 PM 42.5945 -71.7408 28° Northeast 453 521 33,000  Level FlightAware ADS-B
Thu 08:21:39 PM 42.6551 -71.6965 28° Northeast 454 522 33,000  Level FlightAware ADS-B (KBOS)
Thu 08:22:11 PM 42.7182 -71.6503 28° Northeast 454 522 33,000  Level FlightAware ADS-B (KBOS)
Thu 08:22:41 PM 42.7733 -71.6099 28° Northeast 454 522 33,000  Level FlightAware ADS-B (KBOS)
Thu 08:23:12 PM 42.8296 -71.5686 28° Northeast 454 522 33,000  Level FlightAware ADS-B (KBOS)
Thu 08:23:36 PM 42.8751 -71.5350 28° Northeast 452 520 33,000  Level FlightAware ADS-B (SBBR / BSB)
Thu 08:24:07 PM 42.9321 -71.4930 28° Northeast 442 509 33,000  Level FlightAware ADS-B
Thu 08:24:37 PM 42.9869 -71.4525 28° Northeast 441 507 33,000  Level FlightAware ADS-B
Thu 08:25:07 PM 43.0401 -71.4132 28° Northeast 440 506 33,000  Level FlightAware ADS-B
Thu 08:25:37 PM 43.0909 -71.3756 28° Northeast 448 516 33,000  Level FlightAware ADS-B (SBBR / BSB)
Thu 08:26:08 PM 43.1515 -71.3305 28° Northeast 449 517 33,000  Level FlightAware ADS-B (SBBR / BSB)
Thu 08:26:41 PM 43.2119 -71.2856 28° Northeast 450 518 33,000  Level FlightAware ADS-B (KBOS)
Thu 08:27:12 PM 43.2693 -71.2427 29° Northeast 451 519 33,000  Level FlightAware ADS-B (KBOS)
Thu 08:27:48 PM 43.3348 -71.1937 29° Northeast 441 507 33,000  Level FlightAware ADS-B
Thu 08:28:19 PM 43.3909 -71.1516 29° Northeast 447 514 33,000  Level FlightAware ADS-B (SBBR / BSB)
Thu 08:28:28 PM 43.4060 -71.1400 29° Northeast 448 516 33,000  Level FlightAware ADS-B
Thu 08:28:52 PM 43.4512 -71.1062 28° Northeast 440 506 33,000  Level FlightAware ADS-B
Thu 08:29:06 PM 43.4760 -71.0870 29° Northeast 448 516 33,000  Level FlightAware ADS-B
Thu 08:29:32 PM 43.5214 -71.0533 28° Northeast 448 516 33,000  Level FlightAware ADS-B (KBOS)
Thu 08:29:36 PM 43.5310 -71.0460 29° Northeast 449 517 33,000  Level FlightAware ADS-B
Thu 08:30:02 PM 43.5732 -71.0141 29° Northeast 449 517 33,000  Level FlightAware ADS-B (KBOS)
Thu 08:30:12 PM 43.5950 -70.9970 30° Northeast 451 519 33,000  Level FlightAware ADS-B
Thu 08:30:33 PM 43.6334 -70.9686 28° Northeast 443 510 33,000  Level FlightAware ADS-B
Thu 08:30:56 PM 43.6760 -70.9360 29° Northeast 450 518 33,000  Level FlightAware ADS-B
Thu 08:31:03 PM 43.6885 -70.9267 28° Northeast 442 509 33,000  Level FlightAware ADS-B
Thu 08:31:42 PM 43.7586 -70.8735 29° Northeast 448 516 33,000  Level FlightAware ADS-B (KBOS)
Thu 08:32:12 PM 43.8094 -70.8348 29° Northeast 449 517 33,000  Level FlightAware ADS-B (KBOS)
Thu 08:32:42 PM 43.8671 -70.7907 29° Northeast 450 518 33,000  Level FlightAware ADS-B (KBOS)
Thu 08:33:12 PM 43.9232 -70.7478 29° Northeast 453 521 33,000  Level FlightAware ADS-B (KBOS)
Thu 08:33:42 PM 43.9781 -70.7056 29° Northeast 455 524 33,000  Level FlightAware ADS-B (KBOS)
Thu 08:34:12 PM 44.0312 -70.6648 29° Northeast 457 526 33,000  Level FlightAware ADS-B (KBOS)
Thu 08:34:42 PM 44.0898 -70.6197 29° Northeast 455 524 33,000  Level FlightAware ADS-B (KBOS)
Thu 08:35:12 PM 44.1415 -70.5798 29° Northeast 454 522 33,000  Level FlightAware ADS-B (KBOS)
Thu 08:36:02 PM 44.2366 -70.5061 29° Northeast 454 522 33,000  Level FlightAware ADS-B (KBOS)
Thu 08:36:42 PM 44.3077 -70.4508 29° Northeast 455 524 33,000  Level FlightAware ADS-B (KBOS)
Thu 08:37:12 PM 44.3636 -70.4073 29° Northeast 454 522 33,000  Level FlightAware ADS-B (KBOS)
Thu 08:37:42 PM 44.4194 -70.3638 29° Northeast 454 522 33,000  Level FlightAware ADS-B (KBOS)
Thu 08:38:12 PM 44.4745 -70.3207 29° Northeast 454 522 33,000  Level FlightAware ADS-B (KBOS)
Thu 08:38:42 PM 44.5298 -70.2773 29° Northeast 453 521 33,000  Level FlightAware ADS-B (KBOS)
Thu 08:39:12 PM 44.5807 -70.2373 29° Northeast 451 519 33,000  Level FlightAware ADS-B (KBOS)
Thu 08:39:43 PM 44.6190 -70.2071 29° Northeast 451 519 33,000  Level FlightAware ADS-B (EGUN / MHZ)
Thu 08:40:22 PM 44.7107 -70.1348 29° Northeast 451 519 33,000  Level FlightAware ADS-B
Thu 08:40:52 PM 44.7584 -70.0972 29° Northeast 450 518 33,000  Level FlightAware ADS-B
Thu 08:41:30 PM 44.8327 -70.0382 29° Northeast 448 516 33,000  Level FlightAware ADS-B
Thu 08:42:13 PM 44.9123 -69.9747 29° Northeast 448 516 33,000  Level FlightAware ADS-B
Thu 08:43:00 PM 44.9965 -69.9076 29° Northeast 452 520 33,000  Level FlightAware ADS-B
Thu 08:43:33 PM 45.0570 -69.8592 29° Northeast 453 521 33,000  Level FlightAware ADS-B
Thu 08:44:05 PM 45.1009 -69.8240 29° Northeast 456 525 33,000  Level FlightAware ADS-B
Thu 08:44:45 PM 45.1882 -69.7537 30° Northeast 458 527 33,000  Level FlightAware ADS-B
Thu 08:45:22 PM 45.2571 -69.6981 30° Northeast 456 525 33,000  Level FlightAware ADS-B
Thu 08:46:01 PM 45.3145 -69.6516 30° Northeast 456 525 33,000  Level FlightAware ADS-B
Thu 08:46:42 PM 45.4016 -69.5809 30° Northeast 456 525 33,000  Level FlightAware ADS-B
Thu 08:47:13 PM 45.4607 -69.5327 30° Northeast 456 525 33,000  Level FlightAware ADS-B
Thu 08:47:50 PM 45.5271 -69.4786 30° Northeast 457 526 33,000  Level FlightAware ADS-B
Thu 08:48:56 PM 45.6335 -69.3913 30° Northeast 459 528 33,000  Level FlightAware ADS-B (EGUN / MHZ)
Thu 08:49:47 PM 45.7416 -69.3025 30° Northeast 461 531 33,000  Level FlightAware ADS-B
Thu 08:51:53 PM 45.9625 -69.1195 30° Northeast 461 531 33,000  Level FlightAware ADS-B
Thu 08:53:04 PM 46.1049 -69.0006 30° Northeast 469 540 33,000  Level FlightAware ADS-B
Thu 08:53:49 PM 46.1892 -68.9297 30° Northeast 469 540 33,000  Level FlightAware ADS-B
Thu 08:54:44 PM 46.2853 -68.8492 30° Northeast 470 541 33,000  Level Boston Center
Thu 08:55:45 PM 46.3983 -68.7533 30° Northeast 468 539 33,000  Level Boston Center
Thu 08:56:45 PM 46.5117 -68.6575 30° Northeast 469 540 33,000  Level Boston Center
Thu 08:57:46 PM 46.6247 -68.5608 30° Northeast 470 541 33,000  Level Boston Center
Thu 08:58:49 PM 46.7372 -68.4636 31° Northeast 468 539 33,000  Level Boston Center
Thu 09:04:16 PM 47.3521 -67.9273 31° Northeast 470 541 33,000  Level FlightAware ADS-B
Thu 09:05:01 PM 47.4417 -67.8482 31° Northeast 472 543 33,000  Level FlightAware ADS-B
Thu 09:05:33 PM 47.5008 -67.7957 31° Northeast 474 545 33,000  Level FlightAware ADS-B
Thu 09:06:18 PM 47.5667 -67.7167 31° Northeast 470 541 33,000  Level Moncton Center
Thu 09:07:18 PM 47.6833 -67.6333 26° Northeast 480 552 33,000  Level Moncton Center
Thu 09:08:18 PM 47.8000 -67.5333 30° Northeast 470 541 33,000  Level Moncton Center
Thu 09:09:18 PM 47.9167 -67.4500 26° Northeast 470 541 33,000  Level Moncton Center
Thu 09:10:18 PM 48.0333 -67.3500 30° Northeast 470 541 33,000  Level Moncton Center
Thu 09:11:18 PM 48.1500 -67.2833 21° North 470 541 33,000  Level Moncton Center
Thu 09:12:18 PM 48.2667 -67.1833 30° Northeast 470 541 33,000  Level Moncton Center
Thu 09:13:18 PM 48.3667 -67.1000 29° Northeast 470 541 33,000  Level Moncton Center
Thu 09:15:10 PM 48.5667 -66.9167 31° Northeast 470 541 33,000  Level Gander Center
Thu 09:16:10 PM 48.7000 -66.8333 22° Northeast 470 541 33,000  Level Gander Center
Thu 09:17:18 PM 48.8333 -66.7167 30° Northeast 460 529 33,000  Level Moncton Center
Thu 09:18:18 PM 48.9333 -66.6167 33° Northeast 460 529 33,000  Level Moncton Center
Thu 09:19:18 PM 49.0500 -66.5167 29° Northeast 460 529 33,000  Level Moncton Center
Thu 09:20:18 PM 49.1667 -66.4167 29° Northeast 460 529 33,000  Level Moncton Center
Thu 09:21:18 PM 49.2833 -66.3167 29° Northeast 460 529 33,000  Level Moncton Center
Thu 09:22:10 PM 49.3833 -66.2333 28° Northeast 460 529 33,000  Level Gander Center
Thu 09:23:10 PM 49.5000 -66.1500 25° Northeast 460 529 33,000  Level Gander Center
Thu 09:24:10 PM 49.6000 -66.0500 33° Northeast 460 529 33,000  Level Gander Center
Thu 09:25:10 PM 49.7000 -65.9667 28° Northeast 460 529 33,000  Level Gander Center
Thu 09:26:10 PM 49.8333 -65.8667 26° Northeast 460 529 33,000  Level Gander Center
Thu 09:27:10 PM 49.9333 -65.7833 28° Northeast 460 529 33,000  Level Gander Center
Thu 09:28:10 PM 50.0500 -65.6833 29° Northeast 460 529 33,000  Level Gander Center
Thu 09:29:10 PM 50.1500 -65.5667 37° Northeast 460 529 33,000  Level Gander Center
Thu 09:30:10 PM 50.2667 -65.4667 29° Northeast 460 529 33,000  Level Gander Center
Thu 09:31:10 PM 50.3833 -65.3667 29° Northeast 460 529 33,000  Level Gander Center
Thu 09:32:10 PM 50.4833 -65.2833 28° Northeast 460 529 33,000  Level Gander Center
Thu 09:33:10 PM 50.6000 -65.1833 29° Northeast 460 529 33,000  Level Gander Center
Thu 09:34:10 PM 50.7167 -65.0833 28° Northeast 450 518 33,000  Level Gander Center
Thu 09:35:10 PM 50.8333 -64.9833 28° Northeast 450 518 33,000  Level Gander Center
Thu 09:36:10 PM 50.9333 -64.8833 32° Northeast 450 518 33,000  Level Gander Center
Thu 09:37:10 PM 51.0333 -64.8000 28° Northeast 450 518 33,000  Level Gander Center
Thu 09:38:10 PM 51.1500 -64.7000 28° Northeast 460 529 33,000  Level Gander Center
Thu 09:39:10 PM 51.2667 -64.6000 28° Northeast 460 529 33,000  Level Gander Center
Thu 09:40:10 PM 51.3667 -64.4667 40° Northeast 460 529 33,000  Level Gander Center
Thu 09:41:10 PM 51.4833 -64.3667 28° Northeast 460 529 33,000  Level Gander Center
Thu 09:42:10 PM 51.5833 -64.2667 32° Northeast 460 529 33,000  Level Gander Center
Thu 09:43:10 PM 51.6833 -64.1667 32° Northeast 460 529 33,000  Level Gander Center
Thu 09:44:10 PM 51.8167 -64.0667 25° Northeast 460 529 33,000  Level Gander Center
Thu 09:45:18 PM 51.9333 -63.9333 35° Northeast 460 529 33,000  Level Moncton Center
Thu 09:46:18 PM 52.0333 -63.8333 32° Northeast 450 518 33,000  Level Moncton Center
Thu 09:47:10 PM 52.1333 -63.7667 22° Northeast 450 518 33,000  Level Gander Center
Thu 09:48:10 PM 52.2333 -63.6333 39° Northeast 460 529 33,000  Level Gander Center
Thu 09:49:10 PM 52.3333 -63.5000 39° Northeast 460 529 33,000  Level Gander Center
Thu 09:50:10 PM 52.4500 -63.3667 35° Northeast 450 518 33,000  Level Gander Center
Thu 09:51:10 PM 52.5500 -63.2667 31° Northeast 460 529 33,000  Level Gander Center
Thu 09:52:10 PM 52.6500 -63.1333 39° Northeast 460 529 33,000  Level Gander Center
Thu 09:53:10 PM 52.7500 -63.0000 39° Northeast 460 529 33,000  Level Gander Center
Thu 09:54:10 PM 52.8500 -62.8833 35° Northeast 460 529 33,000  Level Gander Center
Thu 09:55:10 PM 52.9500 -62.7500 39° Northeast 460 529 33,000  Level Gander Center
Thu 09:56:10 PM 53.0500 -62.6167 39° Northeast 460 529 33,000  Level Gander Center
Thu 09:57:10 PM 53.1500 -62.4833 39° Northeast 460 529 33,000  Level Gander Center
Thu 09:58:10 PM 53.2500 -62.3667 35° Northeast 450 518 33,000  Level Gander Center
Thu 09:59:10 PM 53.3667 -62.2333 34° Northeast 460 529 33,000  Level Gander Center
Thu 10:00:10 PM 53.4667 -62.1000 38° Northeast 460 529 33,000  Level Gander Center
Thu 10:01:10 PM 53.5667 -61.9833 35° Northeast 460 529 33,000  Level Gander Center
Thu 10:02:10 PM 53.6667 -61.8500 38° Northeast 460 529 33,000  Level Gander Center
Thu 10:03:10 PM 53.7667 -61.7000 42° Northeast 460 529 33,000  Level Gander Center
Thu 10:04:10 PM 53.8667 -61.5667 38° Northeast 460 529 33,000  Level Gander Center
Thu 10:05:10 PM 53.9667 -61.4500 34° Northeast 460 529 33,000  Level Gander Center
Thu 10:06:10 PM 54.0500 -61.3167 43° Northeast 460 529 33,000  Level Gander Center
Thu 10:07:10 PM 54.1667 -61.1667 37° Northeast 460 529 33,000  Level Gander Center
Thu 10:08:10 PM 54.2667 -61.0500 34° Northeast 460 529 33,000  Level Gander Center
Thu 10:09:10 PM 54.3667 -60.9167 38° Northeast 460 529 33,000  Level Gander Center
Thu 10:10:10 PM 54.4667 -60.7667 41° Northeast 460 529 33,000  Level Gander Center
Thu 10:11:10 PM 54.5667 -60.6167 41° Northeast 460 529 33,000  Level Gander Center
Thu 10:12:10 PM 54.6667 -60.5000 34° Northeast 460 529 33,000  Level Gander Center
Thu 10:13:10 PM 54.7667 -60.3500 41° Northeast 460 529 33,000  Level Gander Center
Thu 10:14:10 PM 54.8667 -60.2000 41° Northeast 460 529 33,000  Level Gander Center
Thu 10:15:10 PM 54.9667 -60.0833 34° Northeast 460 529 33,000  Level Gander Center
Thu 10:16:10 PM 55.0667 -59.9333 41° Northeast 460 529 33,000  Level Gander Center
Thu 10:17:10 PM 55.1500 -59.7833 46° Northeast 460 529 33,000  Level Gander Center
Thu 10:18:10 PM 55.2500 -59.6333 41° Northeast 460 529 33,000  Level Gander Center
Thu 10:19:10 PM 55.3500 -59.5167 34° Northeast 460 529 33,000  Level Gander Center
Thu 10:20:10 PM 55.4500 -59.3667 40° Northeast 460 529 33,000  Level Gander Center
Thu 10:21:10 PM 55.5500 -59.2167 40° Northeast 460 529 33,000  Level Gander Center
Thu 10:22:10 PM 55.6500 -59.1000 33° Northeast 460 529 33,000  Level Gander Center
Thu 10:23:10 PM 55.7500 -58.9167 46° Northeast 460 529 33,000  Level Gander Center
Thu 10:24:10 PM 55.8500 -58.7833 37° Northeast 460 529 33,000  Level Gander Center
Thu 10:25:10 PM 55.9333 -58.6333 45° Northeast 460 529 33,000  Level Gander Center
Thu 10:26:10 PM 56.0333 -58.4667 43° Northeast 460 529 33,000  Level Gander Center
Thu 10:27:10 PM 56.1333 -58.3500 33° Northeast 470 541 33,000  Level Gander Center
Thu 10:28:10 PM 56.2333 -58.1500 48° Northeast 470 541 33,000  Level Gander Center
Thu 10:29:10 PM 56.3333 -58.0333 33° Northeast 470 541 33,000  Level Gander Center
Thu 10:30:10 PM 56.4167 -57.8333 53° Northeast 470 541 33,000  Level Gander Center
Thu 10:31:10 PM 56.5167 -57.6833 40° Northeast 480 552 33,000  Level Gander Center
Thu 10:32:10 PM 56.6167 -57.4833 48° Northeast 480 552 33,000  Level Gander Center
Thu 10:33:10 PM 56.7000 -57.3333 45° Northeast 480 552 33,000  Level Gander Center
Thu 10:34:10 PM 56.7667 -57.1667 54° Northeast 490 564 33,000  Level Gander Center
Thu 10:35:10 PM 56.8667 -56.9833 45° Northeast 490 564 33,000  Level Gander Center
Thu 10:36:10 PM 56.9667 -56.8167 42° Northeast 470 541 33,000  Level Gander Center
Thu 10:37:10 PM 57.0333 -56.6500 54° Northeast 470 541 33,000  Level Gander Center
Thu 10:38:10 PM 57.1500 -56.4167 47° Northeast 490 564 33,000  Level Gander Center
Thu 10:39:10 PM 57.2333 -56.2500 47° Northeast 490 564 33,000  Level Gander Center
Thu 10:40:48 PM 57.3833 -55.9833 44° Northeast 430 495 33,000  Level Gander Center
Thu 10:41:48 PM 57.4667 -55.7833 52° Northeast 450 518 33,000  Level Gander Center
Thu 10:42:48 PM 57.5667 -55.5833 47° Northeast 510 587 33,000  Level Gander Center
Thu 10:43:48 PM 57.6333 -55.4167 53° Northeast 500 575 33,000  Level Gander Center
Thu 10:44:48 PM 57.7333 -55.2167 47° Northeast 490 564 33,000  Level Gander Center
Thu 10:45:48 PM 57.8333 -55.0167 47° Northeast 490 564 33,000  Level Gander Center
Thu 10:46:48 PM 57.9167 -54.8500 47° Northeast 490 564 33,000  Level Gander Center
Thu 10:47:48 PM 58.0167 -54.6333 49° Northeast 500 575 33,000  Level Gander Center
Thu 10:50:00 PM 58.1922 -54.2584 48° Northeast  Level FlightAware Approximate
Thu 10:57:00 PM 58.8131 -52.8818 49° Northeast  Level FlightAware Approximate
Thu 10:58:00 PM 58.9006 -52.6811 50° Northeast  Level FlightAware Approximate
Thu 10:59:00 PM 58.9878 -52.4794 50° Northeast  Level FlightAware Approximate
Thu 11:00:00 PM 59.0746 -52.2767 50° Northeast  Level FlightAware Approximate
Thu 11:01:00 PM 59.1612 -52.0730 50° Northeast  Level FlightAware Approximate
Thu 11:02:00 PM 59.2474 -51.8682 50° Northeast  Level FlightAware Approximate
Thu 11:03:00 PM 59.3333 -51.6624 51° Northeast  Level FlightAware Approximate
Thu 11:04:00 PM 59.4188 -51.4556 51° Northeast  Level FlightAware Approximate
Thu 11:05:00 PM 59.5041 -51.2477 51° Northeast  Level FlightAware Approximate
Thu 11:06:00 PM 59.5890 -51.0388 51° Northeast  Level FlightAware Approximate
Thu 11:07:00 PM 59.6736 -50.8288 51° Northeast  Level FlightAware Approximate
Thu 11:08:00 PM 59.7578 -50.6177 52° Northeast  Level FlightAware Approximate
Thu 11:09:00 PM 59.8417 -50.4056 52° Northeast  Level FlightAware Approximate
Thu 11:10:00 PM 59.9252 -50.1924 52° Northeast  Level FlightAware Approximate
Thu 11:11:00 PM 60.0062 -49.9755 63° Northeast  Level FlightAware Approximate
Thu 11:12:00 PM 60.0670 -49.7325 63° Northeast  Level FlightAware Approximate
Thu 11:13:00 PM 60.1273 -49.4887 63° Northeast  Level FlightAware Approximate
Thu 11:14:00 PM 60.1872 -49.2439 64° Northeast  Level FlightAware Approximate
Thu 11:15:00 PM 60.2467 -48.9983 64° Northeast  Level FlightAware Approximate
Thu 11:16:00 PM 60.3057 -48.7517 64° Northeast  Level FlightAware Approximate
Thu 11:17:00 PM 60.3643 -48.5043 64° Northeast  Level FlightAware Approximate
Thu 11:18:00 PM 60.4223 -48.2560 65° Northeast  Level FlightAware Approximate
Thu 11:19:00 PM 60.4800 -48.0068 65° Northeast  Level FlightAware Approximate
Thu 11:20:00 PM 60.5371 -47.7567 65° Northeast  Level FlightAware Approximate
Thu 11:21:00 PM 60.5938 -47.5057 65° Northeast  Level FlightAware Approximate
Thu 11:22:00 PM 60.6500 -47.2539 65° Northeast  Level FlightAware Approximate
Thu 11:23:00 PM 60.7057 -47.0012 66° East  Level FlightAware Approximate
Thu 11:24:00 PM 60.7610 -46.7476 66° East  Level FlightAware Approximate
Thu 11:25:00 PM 60.8158 -46.4931 66° East  Level FlightAware Approximate
Thu 11:26:00 PM 60.8701 -46.2378 66° East  Level FlightAware Approximate
Thu 11:27:00 PM 60.9239 -45.9816 67° East  Level FlightAware Approximate
Thu 11:28:00 PM 60.9772 -45.7245 67° East  Level FlightAware Approximate
Thu 11:29:00 PM 61.0301 -45.4666 67° East  Level FlightAware Approximate
Thu 11:30:00 PM 61.0824 -45.2079 67° East  Level FlightAware Approximate
Thu 11:31:00 PM 61.1342 -44.9482 67° East  Level FlightAware Approximate
Thu 11:32:00 PM 61.1856 -44.6877 68° East  Level FlightAware Approximate
Thu 11:33:00 PM 61.2364 -44.4264 68° East  Level FlightAware Approximate
Thu 11:34:00 PM 61.2868 -44.1642 68° East  Level FlightAware Approximate
Thu 11:35:00 PM 61.3366 -43.9012 68° East  Level FlightAware Approximate
Thu 11:36:00 PM 61.3859 -43.6374 69° East  Level FlightAware Approximate
Thu 11:37:00 PM 61.4347 -43.3727 69° East  Level FlightAware Approximate
Thu 11:38:00 PM 61.4830 -43.1072 69° East  Level FlightAware Approximate
Thu 11:39:00 PM 61.5308 -42.8409 69° East  Level FlightAware Approximate
Thu 11:40:00 PM 61.5781 -42.5738 70° East  Level FlightAware Approximate
Thu 11:41:00 PM 61.6248 -42.3058 70° East  Level FlightAware Approximate
Thu 11:42:00 PM 61.6710 -42.0371 70° East  Level FlightAware Approximate
Thu 11:43:00 PM 61.7167 -41.7675 70° East  Level FlightAware Approximate
Thu 11:44:00 PM 61.7618 -41.4972 70° East  Level FlightAware Approximate
Thu 11:45:00 PM 61.8065 -41.2260 71° East  Level FlightAware Approximate
Thu 11:46:00 PM 61.8505 -40.9541 71° East  Level FlightAware Approximate
Thu 11:47:00 PM 61.8941 -40.6814 71° East  Level FlightAware Approximate
Thu 11:48:00 PM 61.9371 -40.4080 71° East  Level FlightAware Approximate
Thu 11:49:00 PM 61.9795 -40.1337 72° East  Level FlightAware Approximate
Thu 11:50:00 PM 62.0327 -39.8688 62° Northeast  Level FlightAware Approximate
Thu 11:51:00 PM 62.0960 -39.6125 62° Northeast  Level FlightAware Approximate
Thu 11:52:00 PM 62.1588 -39.3551 62° Northeast  Level FlightAware Approximate
Thu 11:53:00 PM 62.2211 -39.0967 63° Northeast  Level FlightAware Approximate
Thu 11:54:00 PM 62.2830 -38.8372 63° Northeast  Level FlightAware Approximate
Thu 11:55:00 PM 62.3444 -38.5766 63° Northeast  Level FlightAware Approximate
Thu 11:56:00 PM 62.4053 -38.3150 63° Northeast  Level FlightAware Approximate
Thu 11:57:00 PM 62.4656 -38.0523 63° Northeast  Level FlightAware Approximate
Thu 11:58:00 PM 62.5256 -37.7886 64° Northeast  Level FlightAware Approximate
Thu 11:59:00 PM 62.5849 -37.5238 64° Northeast  Level FlightAware Approximate
Fri 12:00:00 AM 62.6438 -37.2579 64° Northeast  Level FlightAware Approximate
Fri 12:01:00 AM 62.7022 -36.9910 64° Northeast  Level FlightAware Approximate
Fri 12:02:00 AM 62.7601 -36.7230 65° Northeast  Level FlightAware Approximate
Fri 12:03:00 AM 62.8175 -36.4540 65° Northeast  Level FlightAware Approximate
Fri 12:04:00 AM 62.8742 -36.1838 65° Northeast  Level FlightAware Approximate
Fri 12:05:00 AM 62.9301 -35.9123 66° East  Level FlightAware Approximate
Fri 12:06:00 AM 62.9856 -35.6398 66° East  Level FlightAware Approximate
Fri 12:07:00 AM 63.0405 -35.3663 66° East  Level FlightAware Approximate
Fri 12:08:00 AM 63.0949 -35.0917 66° East  Level FlightAware Approximate
Fri 12:09:00 AM 63.1487 -34.8161 67° East  Level FlightAware Approximate
Fri 12:10:00 AM 63.2021 -34.5395 67° East  Level FlightAware Approximate
Fri 12:11:00 AM 63.2548 -34.2619 67° East  Level FlightAware Approximate
Fri 12:12:00 AM 63.3071 -33.9832 67° East  Level FlightAware Approximate
Fri 12:13:00 AM 63.3588 -33.7036 67° East  Level FlightAware Approximate
Fri 12:14:00 AM 63.4099 -33.4229 68° East  Level FlightAware Approximate
Fri 12:15:00 AM 63.4609 -33.1416 67° East  Level FlightAware Approximate
Fri 12:16:00 AM 63.5127 -32.8607 67° East  Level FlightAware Approximate
Fri 12:17:00 AM 63.5641 -32.5787 68° East  Level FlightAware Approximate
Fri 12:18:00 AM 63.6148 -32.2957 68° East  Level FlightAware Approximate
Fri 12:19:00 AM 63.6651 -32.0117 68° East  Level FlightAware Approximate
Fri 12:20:00 AM 63.7147 -31.7267 68° East  Level FlightAware Approximate
Fri 12:21:00 AM 63.7638 -31.4407 69° East  Level FlightAware Approximate
Fri 12:22:00 AM 63.8123 -31.1537 69° East  Level FlightAware Approximate
Fri 12:23:00 AM 63.8603 -30.8657 69° East  Level FlightAware Approximate
Fri 12:24:00 AM 63.9076 -30.5767 69° East  Level FlightAware Approximate
Fri 12:25:00 AM 63.9544 -30.2868 70° East  Level FlightAware Approximate
Fri 12:26:00 AM 64.0006 -29.9958 73° East  Level FlightAware Approximate
Fri 12:27:00 AM 64.0405 -29.6996 73° East  Level FlightAware Approximate
Fri 12:28:00 AM 64.0798 -29.4027 73° East  Level FlightAware Approximate
Fri 12:29:00 AM 64.1186 -29.1048 73° East  Level FlightAware Approximate
Fri 12:30:00 AM 64.1567 -28.8062 74° East  Level FlightAware Approximate
Fri 12:31:00 AM 64.1942 -28.5067 74° East  Level FlightAware Approximate
Fri 12:32:00 AM 64.2311 -28.2065 74° East  Level FlightAware Approximate
Fri 12:33:00 AM 64.2674 -27.9054 74° East  Level FlightAware Approximate
Fri 12:34:00 AM 64.3030 -27.6036 75° East  Level FlightAware Approximate
Fri 12:35:00 AM 64.3381 -27.3009 75° East  Level FlightAware Approximate
Fri 12:36:00 AM 64.3725 -26.9976 75° East  Level FlightAware Approximate
Fri 12:37:00 AM 64.4063 -26.6935 75° East  Level FlightAware Approximate
Fri 12:38:00 AM 64.4400 -26.3889 75° East  Level FlightAware Approximate
Fri 12:39:00 AM 64.4731 -26.0836 76° East  Level FlightAware Approximate
Fri 12:40:00 AM 64.5055 -25.7776 76° East  Level FlightAware Approximate
Fri 12:41:00 AM 64.5372 -25.4708 76° East  Level FlightAware Approximate
Fri 12:42:00 AM 64.5684 -25.1633 77° East  Level FlightAware Approximate
Fri 12:43:00 AM 64.5989 -24.8552 77° East  Level FlightAware Approximate
Fri 12:44:00 AM 64.6287 -24.5463 77° East  Level FlightAware Approximate
Fri 12:45:00 AM 64.6579 -24.2368 77° East  Level FlightAware Approximate
Fri 12:46:00 AM 64.6865 -23.9266 78° East  Level FlightAware Approximate
Fri 12:47:00 AM 64.7144 -23.6158 78° East  Level FlightAware Approximate
Fri 12:48:00 AM 64.7420 -23.3045 78° East  Level FlightAware Approximate
Fri 12:49:00 AM 64.7697 -22.9929 78° East  Level FlightAware Approximate
Fri 12:50:00 AM 64.7967 -22.6807 78° East  Level FlightAware Approximate
Fri 12:51:00 AM 64.8231 -22.3678 79° East  Level FlightAware Approximate
Fri 12:52:00 AM 64.8488 -22.0544 79° East  Level FlightAware Approximate
Fri 12:53:00 AM 64.8739 -21.7404 79° East  Level FlightAware Approximate
Fri 12:54:00 AM 64.8983 -21.4258 80° East  Level FlightAware Approximate
Fri 12:55:00 AM 64.9220 -21.1106 80° East  Level FlightAware Approximate
Fri 12:56:00 AM 64.9451 -20.7949 80° East  Level FlightAware Approximate
Fri 12:57:00 AM 64.9675 -20.4787 80° East  Level FlightAware Approximate
Fri 12:58:00 AM 64.9892 -20.1619 81° East  Level FlightAware Approximate
Fri 12:59:00 AM 65.0048 -19.8432 86° East  Level FlightAware Approximate
Fri 01:00:00 AM 65.0141 -19.5226 86° East  Level FlightAware Approximate
Fri 01:01:00 AM 65.0228 -19.2019 86° East  Level FlightAware Approximate
Fri 01:02:00 AM 65.0307 -18.8809 87° East  Level FlightAware Approximate
Fri 01:03:00 AM 65.0379 -18.5598 87° East  Level FlightAware Approximate
Fri 01:04:00 AM 65.0445 -18.2385 87° East  Level FlightAware Approximate
Fri 01:05:00 AM 65.0504 -17.9171 87° East  Level FlightAware Approximate
Fri 01:06:00 AM 65.0556 -17.5955 88° East  Level FlightAware Approximate
Fri 01:07:00 AM 65.0601 -17.2738 88° East  Level FlightAware Approximate
Fri 01:08:00 AM 65.0639 -16.9520 88° East  Level FlightAware Approximate
Fri 01:09:00 AM 65.0671 -16.6301 88° East  Level FlightAware Approximate
Fri 01:10:00 AM 65.0702 -16.3082 89° East  Level FlightAware Approximate
Fri 01:11:00 AM 65.0727 -15.9862 89° East  Level FlightAware Approximate
Fri 01:12:00 AM 65.0745 -15.6642 89° East  Level FlightAware Approximate
Fri 01:13:00 AM 65.0756 -15.3421 89° East  Level FlightAware Approximate
Fri 01:14:00 AM 65.0760 -15.0201 90° East  Level FlightAware Approximate
Fri 01:15:00 AM 65.0757 -14.6980 90° East  Level FlightAware Approximate
Fri 01:16:00 AM 65.0748 -14.3759 90° East  Level FlightAware Approximate
Fri 01:17:00 AM 65.0731 -14.0539 91° East  Level FlightAware Approximate
Fri 01:18:00 AM 65.0707 -13.7319 91° East  Level FlightAware Approximate
Fri 01:19:00 AM 65.0677 -13.4099 91° East  Level FlightAware Approximate
Fri 01:20:00 AM 65.0644 -13.0880 91° East  Level FlightAware Approximate
Fri 01:21:00 AM 65.0607 -12.7662 91° East  Level FlightAware Approximate
Fri 01:22:00 AM 65.0563 -12.4445 92° East  Level FlightAware Approximate
Fri 01:23:00 AM 65.0512 -12.1229 92° East  Level FlightAware Approximate
Fri 01:24:00 AM 65.0454 -11.8015 92° East  Level FlightAware Approximate
Fri 01:25:00 AM 65.0389 -11.4802 93° East  Level FlightAware Approximate
Fri 01:26:00 AM 65.0317 -11.1590 93° East  Level FlightAware Approximate
Fri 01:27:00 AM 65.0238 -10.8380 93° East  Level FlightAware Approximate
Fri 01:28:00 AM 65.0153 -10.5173 93° East  Level FlightAware Approximate
Fri 01:29:00 AM 65.0060 -10.1967 94° East  Level FlightAware Approximate
Fri 01:30:00 AM 65.0031 -9.8763 87° East  Level FlightAware Approximate
Fri 01:31:00 AM 65.0107 -9.5555 87° East  Level FlightAware Approximate
Fri 01:32:00 AM 65.0176 -9.2346 87° East  Level FlightAware Approximate
Fri 01:33:00 AM 65.0238 -8.9135 87° East  Level FlightAware Approximate
Fri 01:34:00 AM 65.0294 -8.5923 88° East  Level FlightAware Approximate
Fri 01:35:00 AM 65.0348 -8.2710 87° East  Level FlightAware Approximate
Fri 01:36:00 AM 65.0420 -7.9498 87° East  Level FlightAware Approximate
Fri 01:37:00 AM 65.0485 -7.6284 87° East  Level FlightAware Approximate
Fri 01:38:00 AM 65.0543 -7.3069 87° East  Level FlightAware Approximate
Fri 01:39:00 AM 65.0594 -6.9853 88° East  Level FlightAware Approximate
Fri 01:40:00 AM 65.0638 -6.6636 88° East  Level FlightAware Approximate
Fri 01:41:00 AM 65.0676 -6.3417 88° East  Level FlightAware Approximate
Fri 01:42:00 AM 65.0706 -6.0198 89° East  Level FlightAware Approximate
Fri 01:43:00 AM 65.0730 -5.6978 89° East  Level FlightAware Approximate
Fri 01:44:00 AM 65.0746 -5.3758 89° East  Level FlightAware Approximate
Fri 01:45:00 AM 65.0756 -5.0537 89° East  Level FlightAware Approximate
Fri 01:46:00 AM 65.0759 -4.7316 90° East  Level FlightAware Approximate
Fri 01:47:00 AM 65.0754 -4.4095 90° East  Level FlightAware Approximate
Fri 01:48:00 AM 65.0743 -4.0875 90° East  Level FlightAware Approximate
Fri 01:49:00 AM 65.0725 -3.7654 91° East  Level FlightAware Approximate
Fri 01:50:00 AM 65.0701 -3.4434 91° East  Level FlightAware Approximate
Fri 01:51:00 AM 65.0669 -3.1215 91° East  Level FlightAware Approximate
Fri 01:52:00 AM 65.0630 -2.7997 91° East  Level FlightAware Approximate
Fri 01:53:00 AM 65.0584 -2.4780 92° East  Level FlightAware Approximate
Fri 01:54:00 AM 65.0532 -2.1564 92° East  Level FlightAware Approximate
Fri 01:55:00 AM 65.0472 -1.8349 92° East  Level FlightAware Approximate
Fri 01:56:00 AM 65.0406 -1.5136 93° East  Level FlightAware Approximate
Fri 01:57:00 AM 65.0333 -1.1924 93° East  Level FlightAware Approximate
Fri 01:58:00 AM 65.0253 -0.8715 93° East  Level FlightAware Approximate
Fri 01:59:00 AM 65.0166 -0.5507 94° East  Level FlightAware Approximate
Fri 02:00:00 AM 65.0072 -0.2302 94° East  Level FlightAware Approximate
Fri 02:01:00 AM 64.9943 0.0894 99° East  Level FlightAware Approximate
Fri 02:02:00 AM 64.9734 0.4065 99° East  Level FlightAware Approximate
Fri 02:03:00 AM 64.9519 0.7232 99° East  Level FlightAware Approximate
Fri 02:04:00 AM 64.9297 1.0394 99° East  Level FlightAware Approximate
Fri 02:05:00 AM 64.9069 1.3550 100° East  Level FlightAware Approximate
Fri 02:06:00 AM 64.8834 1.6701 100° East  Level FlightAware Approximate
Fri 02:07:00 AM 64.8592 1.9846 100° East  Level FlightAware Approximate
Fri 02:08:00 AM 64.8343 2.2985 100° East  Level FlightAware Approximate
Fri 02:09:00 AM 64.8088 2.6119 101° East  Level FlightAware Approximate
Fri 02:10:00 AM 64.7827 2.9247 101° East  Level FlightAware Approximate
Fri 02:11:00 AM 64.7559 3.2368 101° East  Level FlightAware Approximate
Fri 02:12:00 AM 64.7284 3.5483 102° East  Level FlightAware Approximate
Fri 02:13:00 AM 64.7003 3.8592 102° East  Level FlightAware Approximate
Fri 02:14:00 AM 64.6715 4.1694 102° East  Level FlightAware Approximate
Fri 02:15:00 AM 64.6421 4.4790 102° East  Level FlightAware Approximate
Fri 02:16:00 AM 64.6120 4.7879 103° East  Level FlightAware Approximate
Fri 02:17:00 AM 64.5813 5.0961 103° East  Level FlightAware Approximate
Fri 02:18:00 AM 64.5499 5.4036 103° East  Level FlightAware Approximate
Fri 02:19:00 AM 64.5179 5.7104 103° East  Level FlightAware Approximate
Fri 02:20:00 AM 64.4853 6.0164 104° East  Level FlightAware Approximate
Fri 02:21:00 AM 64.4520 6.3218 104° East  Level FlightAware Approximate
Fri 02:22:00 AM 64.4181 6.6263 104° East  Level FlightAware Approximate
Fri 02:23:00 AM 64.3836 6.9301 105° East  Level FlightAware Approximate
Fri 02:24:00 AM 64.3484 7.2332 105° East  Level FlightAware Approximate
Fri 02:25:00 AM 64.3126 7.5354 105° East  Level FlightAware Approximate
Fri 02:26:00 AM 64.2762 7.8369 105° East  Level FlightAware Approximate
Fri 02:27:00 AM 64.2392 8.1376 106° East  Level FlightAware Approximate
Fri 02:28:00 AM 64.2016 8.4374 106° East  Level FlightAware Approximate
Fri 02:29:00 AM 64.1633 8.7365 106° East  Level FlightAware Approximate
Fri 02:30:00 AM 64.1245 9.0347 107° East  Level FlightAware Approximate
Fri 02:31:00 AM 64.0850 9.3321 107° East  Level FlightAware Approximate
Fri 02:32:00 AM 64.0450 9.6286 107° East  Level FlightAware Approximate
Fri 02:33:00 AM 64.0043 9.9242 107° East  Level FlightAware Approximate
Fri 02:34:00 AM 63.9630 10.2191 108° East  Level FlightAware Approximate
Fri 02:35:00 AM 63.9211 10.5130 108° East  Level FlightAware Approximate
Fri 02:36:00 AM 63.8787 10.8060 108° East  Level FlightAware Approximate
Fri 02:37:00 AM 63.8356 11.0982 108° East  Level FlightAware Approximate
Fri 02:38:00 AM 63.7920 11.3894 109° East  Level FlightAware Approximate
Fri 02:39:00 AM 63.7478 11.6798 109° East  Level FlightAware Approximate
Fri 02:40:00 AM 63.7030 11.9692 109° East  Level FlightAware Approximate
Fri 02:41:00 AM 63.6576 12.2577 109° East  Level FlightAware Approximate
Fri 02:42:00 AM 63.6116 12.5453 110° East  Level FlightAware Approximate
Fri 02:43:00 AM 63.5651 12.8320 110° East  Level FlightAware Approximate
Fri 02:44:00 AM 63.5180 13.1177 110° East  Level FlightAware Approximate
Fri 02:45:00 AM 63.4703 13.4024 110° East  Level FlightAware Approximate
Fri 02:46:00 AM 63.4221 13.6862 111° Southeast  Level FlightAware Approximate
Fri 02:47:00 AM 63.3733 13.9691 111° Southeast  Level FlightAware Approximate
Fri 02:48:00 AM 63.3240 14.2510 111° Southeast  Level FlightAware Approximate
Fri 02:49:00 AM 63.2740 14.5319 111° Southeast  Level FlightAware Approximate
Fri 02:50:00 AM 63.2236 14.8118 112° Southeast  Level FlightAware Approximate
Fri 02:51:00 AM 63.1726 15.0908 112° Southeast  Level FlightAware Approximate
Fri 02:52:00 AM 63.1210 15.3688 112° Southeast  Level FlightAware Approximate
Fri 02:53:00 AM 63.0689 15.6458 112° Southeast  Level FlightAware Approximate
Fri 02:54:00 AM 63.0163 15.9218 113° Southeast  Level FlightAware Approximate
Fri 02:55:00 AM 62.9631 16.1968 113° Southeast  Level FlightAware Approximate
Fri 02:56:00 AM 62.9094 16.4708 113° Southeast  Level FlightAware Approximate
Fri 02:57:00 AM 62.8552 16.7437 113° Southeast  Level FlightAware Approximate
Fri 02:58:00 AM 62.8004 17.0157 114° Southeast  Level FlightAware Approximate
Fri 02:59:00 AM 62.7452 17.2867 114° Southeast  Level FlightAware Approximate
Fri 03:00:00 AM 62.6894 17.5566 114° Southeast  Level FlightAware Approximate
Fri 03:01:00 AM 62.6331 17.8255 114° Southeast  Level FlightAware Approximate
Fri 03:02:00 AM 62.5762 18.0934 115° Southeast  Level FlightAware Approximate
Fri 03:03:00 AM 62.5189 18.3603 115° Southeast  Level FlightAware Approximate
Fri 03:04:00 AM 62.4610 18.6261 115° Southeast  Level FlightAware Approximate
Fri 03:05:00 AM 62.4027 18.8909 115° Southeast  Level FlightAware Approximate
Fri 03:06:00 AM 62.3438 19.1547 116° Southeast  Level FlightAware Approximate
Fri 03:07:00 AM 62.2845 19.4174 116° Southeast  Level FlightAware Approximate
Fri 03:08:00 AM 62.2247 19.6791 116° Southeast  Level FlightAware Approximate
Fri 03:09:00 AM 62.1643 19.9398 116° Southeast  Level FlightAware Approximate
Fri 03:10:00 AM 62.1035 20.1994 117° Southeast  Level FlightAware Approximate
Fri 03:11:00 AM 62.0422 20.4580 117° Southeast  Level FlightAware Approximate
Fri 03:12:00 AM 61.9804 20.7155 117° Southeast  Level FlightAware Approximate
Fri 03:13:00 AM 61.9182 20.9720 117° Southeast  Level FlightAware Approximate
Fri 03:14:00 AM 61.8554 21.2274 117° Southeast  Level FlightAware Approximate
Fri 03:15:00 AM 61.7922 21.4818 118° Southeast  Level FlightAware Approximate
Fri 03:16:00 AM 61.7285 21.7352 118° Southeast  Level FlightAware Approximate
Fri 03:17:00 AM 61.6644 21.9875 118° Southeast  Level FlightAware Approximate
Fri 03:18:00 AM 61.5998 22.2387 118° Southeast  Level FlightAware Approximate
Fri 03:19:00 AM 61.5347 22.4889 119° Southeast  Level FlightAware Approximate
Fri 03:20:00 AM 61.4692 22.7380 119° Southeast  Level FlightAware Approximate
Fri 03:21:00 AM 61.4033 22.9861 119° Southeast  Level FlightAware Approximate
Fri 03:22:00 AM 61.3368 23.2332 119° Southeast  Level FlightAware Approximate
Fri 03:23:00 AM 61.2700 23.4792 119° Southeast  Level FlightAware Approximate
Fri 03:24:00 AM 61.2026 23.7241 120° Southeast  Level FlightAware Approximate
Fri 03:25:00 AM 61.1349 23.9680 120° Southeast  Level FlightAware Approximate
Fri 03:26:00 AM 61.0667 24.2109 120° Southeast  Level FlightAware Approximate
Fri 03:27:00 AM 60.9981 24.4527 120° Southeast  Level FlightAware Approximate
Fri 03:28:00 AM 60.9290 24.6934 120° Southeast  Level FlightAware Approximate
Fri 03:29:00 AM 60.8596 24.9331 121° Southeast  Level FlightAware Approximate
Fri 03:30:00 AM 60.7896 25.1718 121° Southeast  Level FlightAware Approximate
Fri 03:31:00 AM 60.7193 25.4094 121° Southeast  Level FlightAware Approximate
Fri 03:32:00 AM 60.6486 25.6460 121° Southeast  Level FlightAware Approximate
Fri 03:33:00 AM 60.5774 25.8816 122° Southeast  Level FlightAware Approximate
Fri 03:34:00 AM 60.5058 26.1161 122° Southeast  Level FlightAware Approximate
Fri 03:35:00 AM 60.4339 26.3496 122° Southeast  Level FlightAware Approximate
Fri 03:36:00 AM 60.3615 26.5820 122° Southeast  Level FlightAware Approximate
Fri 03:37:00 AM 60.2887 26.8134 122° Southeast  Level FlightAware Approximate
Fri 03:38:00 AM 60.2155 27.0438 123° Southeast  Level FlightAware Approximate
Fri 03:39:00 AM 60.1419 27.2731 123° Southeast  Level FlightAware Approximate
Fri 03:40:00 AM 60.0679 27.5014 123° Southeast  Level FlightAware Approximate
Fri 03:41:00 AM 59.9935 27.7287 123° Southeast  Level FlightAware Approximate
Fri 03:42:00 AM 59.9188 27.9550 123° Southeast  Level FlightAware Approximate
Fri 03:43:00 AM 59.8436 28.1802 124° Southeast  Level FlightAware Approximate
Fri 03:44:00 AM 59.7681 28.4045 124° Southeast  Level FlightAware Approximate
Fri 03:45:00 AM 59.6922 28.6277 124° Southeast  Level FlightAware Approximate
Fri 03:46:00 AM 59.6159 28.8499 124° Southeast  Level FlightAware Approximate
Fri 03:47:00 AM 59.5392 29.0711 124° Southeast  Level FlightAware Approximate
Fri 03:48:00 AM 59.4622 29.2913 124° Southeast  Level FlightAware Approximate
Fri 03:49:00 AM 59.3847 29.5105 125° Southeast  Level FlightAware Approximate
Fri 03:50:00 AM 59.3070 29.7287 125° Southeast  Level FlightAware Approximate
Fri 03:51:00 AM 59.2288 29.9459 125° Southeast  Level FlightAware Approximate
Fri 03:52:00 AM 59.1503 30.1620 125° Southeast  Level FlightAware Approximate
Fri 03:53:00 AM 59.0715 30.3772 125° Southeast  Level FlightAware Approximate
Fri 03:54:00 AM 58.9923 30.5914 126° Southeast  Level FlightAware Approximate
Fri 03:55:00 AM 58.9127 30.8047 126° Southeast  Level FlightAware Approximate
Fri 03:56:00 AM 58.8328 31.0169 126° Southeast  Level FlightAware Approximate
Fri 03:57:00 AM 58.7525 31.2282 126° Southeast  Level FlightAware Approximate
Fri 03:58:00 AM 58.6719 31.4385 126° Southeast  Level FlightAware Approximate
Fri 03:59:00 AM 58.5910 31.6478 127° Southeast  Level FlightAware Approximate
Fri 04:00:00 AM 58.5097 31.8561 127° Southeast  Level FlightAware Approximate
Fri 04:01:00 AM 58.4281 32.0635 127° Southeast  Level FlightAware Approximate
Fri 04:02:00 AM 58.3461 32.2700 127° Southeast  Level FlightAware Approximate
Fri 04:03:00 AM 58.2639 32.4754 127° Southeast  Level FlightAware Approximate
Fri 04:04:00 AM 58.1813 32.6799 127° Southeast  Level FlightAware Approximate
Fri 04:05:00 AM 58.0983 32.8835 128° Southeast  Level FlightAware Approximate
Fri 04:06:00 AM 58.0151 33.0861 128° Southeast  Level FlightAware Approximate
Fri 04:07:00 AM 57.9315 33.2878 128° Southeast  Level FlightAware Approximate
Fri 04:08:00 AM 57.8476 33.4885 128° Southeast  Level FlightAware Approximate
Fri 04:09:00 AM 57.7634 33.6883 128° Southeast  Level FlightAware Approximate
Fri 04:10:00 AM 57.6789 33.8872 128° Southeast  Level FlightAware Approximate
Fri 04:11:00 AM 57.5940 34.0851 129° Southeast  Level FlightAware Approximate
Fri 04:12:00 AM 57.5089 34.2822 129° Southeast  Level FlightAware Approximate
Fri 04:13:00 AM 57.4235 34.4783 129° Southeast  Level FlightAware Approximate
Fri 04:14:00 AM 57.3377 34.6734 129° Southeast  Level FlightAware Approximate
Fri 04:15:00 AM 57.2504 34.8658 130° Southeast  Level FlightAware Approximate
Fri 04:16:00 AM 57.1676 35.0644 127° Southeast  Level FlightAware Approximate
Fri 04:17:00 AM 57.0840 35.2565 131° Southeast  Level FlightAware Approximate
Fri 04:18:00 AM 56.9950 35.4447 129° Southeast  Level FlightAware Approximate
Fri 04:19:00 AM 56.9095 35.6381 129° Southeast  Level FlightAware Approximate
Fri 04:20:00 AM 56.8237 35.8305 129° Southeast  Level FlightAware Approximate
Fri 04:21:00 AM 56.7360 36.0196 131° Southeast  Level FlightAware Approximate
Fri 04:22:00 AM 56.6474 36.2069 131° Southeast  Level FlightAware Approximate
Fri 04:23:00 AM 56.5586 36.3933 131° Southeast  Level FlightAware Approximate
Fri 04:24:00 AM 56.4698 36.5794 130° Southeast  Level FlightAware Approximate
Fri 04:25:00 AM 56.3828 36.7678 132° Southeast  Level FlightAware Approximate
Fri 04:26:00 AM 56.2920 36.9498 132° Southeast  Level FlightAware Approximate
Fri 04:27:00 AM 56.1998 37.1291 134° Southeast  Level FlightAware Approximate

Login

Don't have an account? Register now (free) for customized features, flight alerts, and more!